sensor_id;sensor_type;location;lat;lon;timestamp;P1;durP1;ratioP1;P2;durP2;ratioP2
51985;SDS011;38002;53.296;6.600;2023-03-01T00:01:04;6.57;;;4.65;;
51985;SDS011;38002;53.296;6.600;2023-03-01T00:06:06;7.65;;;5.22;;
51985;SDS011;38002;53.296;6.600;2023-03-01T00:11:08;5.25;;;4.75;;
51985;SDS011;38002;53.296;6.600;2023-03-01T00:21:10;5.57;;;4.90;;
51985;SDS011;38002;53.296;6.600;2023-03-01T00:26:12;5.28;;;4.78;;
51985;SDS011;38002;53.296;6.600;2023-03-01T00:36:18;6.00;;;5.07;;
51985;SDS011;38002;53.296;6.600;2023-03-01T00:41:20;8.90;;;6.33;;
51985;SDS011;38002;53.296;6.600;2023-03-01T00:46:24;10.75;;;6.03;;
51985;SDS011;38002;53.296;6.600;2023-03-01T00:51:27;10.63;;;6.55;;
51985;SDS011;38002;53.296;6.600;2023-03-01T01:01:29;9.88;;;6.22;;
51985;SDS011;38002;53.296;6.600;2023-03-01T01:06:32;16.80;;;7.70;;
51985;SDS011;38002;53.296;6.600;2023-03-01T01:11:34;14.50;;;8.35;;
51985;SDS011;38002;53.296;6.600;2023-03-01T01:16:36;16.73;;;8.32;;
51985;SDS011;38002;53.296;6.600;2023-03-01T01:21:37;18.20;;;10.10;;
51985;SDS011;38002;53.296;6.600;2023-03-01T01:26:37;18.88;;;9.63;;
51985;SDS011;38002;53.296;6.600;2023-03-01T01:31:39;15.38;;;6.85;;
51985;SDS011;38002;53.296;6.600;2023-03-01T01:41:41;11.48;;;6.78;;
51985;SDS011;38002;53.296;6.600;2023-03-01T01:57:16;8.98;;;5.50;;
51985;SDS011;38002;53.296;6.600;2023-03-01T02:02:20;9.38;;;5.25;;
51985;SDS011;38002;53.296;6.600;2023-03-01T02:07:22;18.10;;;6.00;;
51985;SDS011;38002;53.296;6.600;2023-03-01T02:12:23;7.35;;;5.45;;
51985;SDS011;38002;53.296;6.600;2023-03-01T02:22:30;10.48;;;4.75;;
51985;SDS011;38002;53.296;6.600;2023-03-01T02:27:34;7.07;;;4.80;;
51985;SDS011;38002;53.296;6.600;2023-03-01T02:32:40;5.72;;;4.68;;
51985;SDS011;38002;53.296;6.600;2023-03-01T02:37:42;7.73;;;5.60;;
51985;SDS011;38002;53.296;6.600;2023-03-01T02:42:53;7.70;;;4.77;;
51985;SDS011;38002;53.296;6.600;2023-03-01T02:47:56;6.32;;;4.50;;
51985;SDS011;38002;53.296;6.600;2023-03-01T02:52:57;9.32;;;5.72;;
51985;SDS011;38002;53.296;6.600;2023-03-01T02:58:08;10.90;;;5.40;;
51985;SDS011;38002;53.296;6.600;2023-03-01T03:03:09;5.17;;;4.53;;
51985;SDS011;38002;53.296;6.600;2023-03-01T03:08:13;5.47;;;4.65;;
51985;SDS011;38002;53.296;6.600;2023-03-01T03:13:14;4.83;;;3.70;;
51985;SDS011;38002;53.296;6.600;2023-03-01T03:18:16;6.68;;;4.65;;
51985;SDS011;38002;53.296;6.600;2023-03-01T03:23:17;4.60;;;4.10;;
51985;SDS011;38002;53.296;6.600;2023-03-01T03:28:18;6.60;;;5.45;;
51985;SDS011;38002;53.296;6.600;2023-03-01T03:33:19;6.60;;;5.60;;
51985;SDS011;38002;53.296;6.600;2023-03-01T03:38:20;8.13;;;5.17;;
51985;SDS011;38002;53.296;6.600;2023-03-01T03:43:22;7.20;;;5.13;;
51985;SDS011;38002;53.296;6.600;2023-03-01T03:48:23;6.97;;;5.50;;
51985;SDS011;38002;53.296;6.600;2023-03-01T03:53:25;8.75;;;5.25;;
51985;SDS011;38002;53.296;6.600;2023-03-01T04:03:27;5.28;;;4.47;;
51985;SDS011;38002;53.296;6.600;2023-03-01T04:08:29;5.63;;;4.57;;
51985;SDS011;38002;53.296;6.600;2023-03-01T04:13:29;5.38;;;4.30;;
51985;SDS011;38002;53.296;6.600;2023-03-01T04:18:30;5.05;;;4.45;;
51985;SDS011;38002;53.296;6.600;2023-03-01T04:23:30;7.30;;;5.63;;
51985;SDS011;38002;53.296;6.600;2023-03-01T04:28:35;6.55;;;4.72;;
51985;SDS011;38002;53.296;6.600;2023-03-01T04:33:38;9.15;;;5.38;;
51985;SDS011;38002;53.296;6.600;2023-03-01T04:38:45;8.00;;;5.13;;
51985;SDS011;38002;53.296;6.600;2023-03-01T04:43:47;5.13;;;4.63;;
51985;SDS011;38002;53.296;6.600;2023-03-01T04:48:48;6.83;;;4.93;;
51985;SDS011;38002;53.296;6.600;2023-03-01T04:53:49;8.55;;;6.00;;
51985;SDS011;38002;53.296;6.600;2023-03-01T04:58:52;11.15;;;5.70;;
51985;SDS011;38002;53.296;6.600;2023-03-01T05:03:53;10.05;;;6.28;;
51985;SDS011;38002;53.296;6.600;2023-03-01T05:08:54;8.13;;;5.63;;
51985;SDS011;38002;53.296;6.600;2023-03-01T05:13:55;7.90;;;5.75;;
51985;SDS011;38002;53.296;6.600;2023-03-01T05:18:55;7.18;;;4.93;;
51985;SDS011;38002;53.296;6.600;2023-03-01T05:23:56;6.67;;;5.00;;
51985;SDS011;38002;53.296;6.600;2023-03-01T05:28:57;7.68;;;4.95;;
51985;SDS011;38002;53.296;6.600;2023-03-01T05:33:58;9.30;;;6.05;;
51985;SDS011;38002;53.296;6.600;2023-03-01T05:38:59;8.17;;;5.50;;
51985;SDS011;38002;53.296;6.600;2023-03-01T05:43:59;11.38;;;6.68;;
51985;SDS011;38002;53.296;6.600;2023-03-01T05:49:00;9.60;;;5.93;;
51985;SDS011;38002;53.296;6.600;2023-03-01T05:54:00;10.70;;;6.28;;
51985;SDS011;38002;53.296;6.600;2023-03-01T05:59:01;12.63;;;6.45;;
51985;SDS011;38002;53.296;6.600;2023-03-01T06:04:03;11.38;;;6.80;;
51985;SDS011;38002;53.296;6.600;2023-03-01T06:09:05;14.87;;;7.23;;
51985;SDS011;38002;53.296;6.600;2023-03-01T06:14:07;11.30;;;6.68;;
51985;SDS011;38002;53.296;6.600;2023-03-01T06:19:08;13.82;;;6.97;;
51985;SDS011;38002;53.296;6.600;2023-03-01T06:24:09;9.57;;;6.30;;
51985;SDS011;38002;53.296;6.600;2023-03-01T06:29:09;11.70;;;7.17;;
51985;SDS011;38002;53.296;6.600;2023-03-01T06:34:10;12.53;;;6.90;;
51985;SDS011;38002;53.296;6.600;2023-03-01T06:39:13;10.43;;;6.78;;
51985;SDS011;38002;53.296;6.600;2023-03-01T06:44:13;12.30;;;7.17;;
51985;SDS011;38002;53.296;6.600;2023-03-01T06:49:14;10.82;;;6.65;;
51985;SDS011;38002;53.296;6.600;2023-03-01T06:54:16;11.80;;;7.05;;
51985;SDS011;38002;53.296;6.600;2023-03-01T06:59:18;12.40;;;6.88;;
51985;SDS011;38002;53.296;6.600;2023-03-01T07:04:19;11.40;;;6.95;;
51985;SDS011;38002;53.296;6.600;2023-03-01T07:09:19;12.77;;;8.10;;
51985;SDS011;38002;53.296;6.600;2023-03-01T07:14:22;12.82;;;8.30;;
51985;SDS011;38002;53.296;6.600;2023-03-01T07:19:24;8.45;;;7.20;;
51985;SDS011;38002;53.296;6.600;2023-03-01T07:24:25;15.93;;;9.23;;
51985;SDS011;38002;53.296;6.600;2023-03-01T07:29:25;12.10;;;8.03;;
51985;SDS011;38002;53.296;6.600;2023-03-01T07:34:25;11.20;;;7.72;;
51985;SDS011;38002;53.296;6.600;2023-03-01T07:39:26;11.07;;;8.43;;
51985;SDS011;38002;53.296;6.600;2023-03-01T07:44:26;14.10;;;9.32;;
51985;SDS011;38002;53.296;6.600;2023-03-01T07:49:28;11.68;;;8.48;;
51985;SDS011;38002;53.296;6.600;2023-03-01T07:54:28;14.77;;;9.52;;
51985;SDS011;38002;53.296;6.600;2023-03-01T07:59:29;12.07;;;8.40;;
51985;SDS011;38002;53.296;6.600;2023-03-01T08:04:29;16.23;;;8.60;;
51985;SDS011;38002;53.296;6.600;2023-03-01T08:09:30;14.55;;;8.93;;
51985;SDS011;38002;53.296;6.600;2023-03-01T08:14:31;15.10;;;9.93;;
51985;SDS011;38002;53.296;6.600;2023-03-01T08:19:32;22.00;;;8.93;;
51985;SDS011;38002;53.296;6.600;2023-03-01T08:24:34;15.60;;;9.25;;
51985;SDS011;38002;53.296;6.600;2023-03-01T08:29:35;15.38;;;10.73;;
51985;SDS011;38002;53.296;6.600;2023-03-01T08:34:35;19.75;;;10.95;;
51985;SDS011;38002;53.296;6.600;2023-03-01T08:39:36;24.20;;;13.70;;
51985;SDS011;38002;53.296;6.600;2023-03-01T08:44:36;21.65;;;14.23;;
51985;SDS011;38002;53.296;6.600;2023-03-01T08:49:37;42.75;;;20.60;;
51985;SDS011;38002;53.296;6.600;2023-03-01T08:54:37;40.92;;;21.73;;
51985;SDS011;38002;53.296;6.600;2023-03-01T08:59:38;42.10;;;21.33;;
51985;SDS011;38002;53.296;6.600;2023-03-01T09:04:38;48.45;;;23.17;;
51985;SDS011;38002;53.296;6.600;2023-03-01T09:09:39;45.95;;;22.10;;
51985;SDS011;38002;53.296;6.600;2023-03-01T09:14:40;36.72;;;19.52;;
51985;SDS011;38002;53.296;6.600;2023-03-01T09:19:41;42.33;;;21.63;;
51985;SDS011;38002;53.296;6.600;2023-03-01T09:24:41;36.80;;;21.33;;
51985;SDS011;38002;53.296;6.600;2023-03-01T09:29:42;42.10;;;22.95;;
51985;SDS011;38002;53.296;6.600;2023-03-01T09:34:42;36.65;;;21.13;;
51985;SDS011;38002;53.296;6.600;2023-03-01T09:40:04;42.20;;;22.60;;
51985;SDS011;38002;53.296;6.600;2023-03-01T09:45:26;28.55;;;17.98;;
51985;SDS011;38002;53.296;6.600;2023-03-01T09:50:37;36.22;;;20.40;;
51985;SDS011;38002;53.296;6.600;2023-03-01T09:55:52;35.78;;;18.67;;
51985;SDS011;38002;53.296;6.600;2023-03-01T10:00:59;27.73;;;16.40;;
51985;SDS011;38002;53.296;6.600;2023-03-01T10:11:26;23.48;;;15.38;;
51985;SDS011;38002;53.296;6.600;2023-03-01T10:16:46;28.85;;;16.75;;
51985;SDS011;38002;53.296;6.600;2023-03-01T10:21:51;24.23;;;14.68;;
51985;SDS011;38002;53.296;6.600;2023-03-01T10:26:56;24.03;;;15.30;;
51985;SDS011;38002;53.296;6.600;2023-03-01T10:32:01;21.35;;;14.00;;
51985;SDS011;38002;53.296;6.600;2023-03-01T10:37:12;22.17;;;14.40;;
51985;SDS011;38002;53.296;6.600;2023-03-01T10:42:19;22.30;;;13.93;;
51985;SDS011;38002;53.296;6.600;2023-03-01T10:47:27;20.85;;;11.57;;
51985;SDS011;38002;53.296;6.600;2023-03-01T10:52:35;19.75;;;11.05;;
51985;SDS011;38002;53.296;6.600;2023-03-01T10:57:38;19.30;;;12.05;;
51985;SDS011;38002;53.296;6.600;2023-03-01T11:02:40;16.13;;;11.02;;
51985;SDS011;38002;53.296;6.600;2023-03-01T11:07:48;18.25;;;11.55;;
51985;SDS011;38002;53.296;6.600;2023-03-01T11:12:53;19.35;;;12.90;;
51985;SDS011;38002;53.296;6.600;2023-03-01T11:18:05;16.10;;;11.57;;
51985;SDS011;38002;53.296;6.600;2023-03-01T11:23:20;16.17;;;11.43;;
51985;SDS011;38002;53.296;6.600;2023-03-01T11:28:22;15.60;;;10.98;;
51985;SDS011;38002;53.296;6.600;2023-03-01T11:38:24;20.15;;;11.73;;
51985;SDS011;38002;53.296;6.600;2023-03-01T11:48:54;19.05;;;12.02;;
51985;SDS011;38002;53.296;6.600;2023-03-01T12:10:33;9.98;;;6.97;;
51985;SDS011;38002;53.296;6.600;2023-03-01T12:21:05;9.30;;;5.88;;
51985;SDS011;38002;53.296;6.600;2023-03-01T12:26:30;8.27;;;6.55;;
51985;SDS011;38002;53.296;6.600;2023-03-01T12:53:04;8.95;;;6.82;;
51985;SDS011;38002;53.296;6.600;2023-03-01T12:58:07;8.65;;;7.43;;
51985;SDS011;38002;53.296;6.600;2023-03-01T13:09:10;10.15;;;8.23;;
51985;SDS011;38002;53.296;6.600;2023-03-01T13:19:23;13.18;;;7.78;;
51985;SDS011;38002;53.296;6.600;2023-03-01T13:34:49;9.73;;;8.00;;
51985;SDS011;38002;53.296;6.600;2023-03-01T13:39:55;11.07;;;8.38;;
51985;SDS011;38002;53.296;6.600;2023-03-01T13:44:57;10.10;;;7.57;;
51985;SDS011;38002;53.296;6.600;2023-03-01T13:50:03;9.77;;;7.32;;
51985;SDS011;38002;53.296;6.600;2023-03-01T13:55:36;10.82;;;7.50;;
51985;SDS011;38002;53.296;6.600;2023-03-01T14:00:45;7.90;;;7.10;;
51985;SDS011;38002;53.296;6.600;2023-03-01T14:16:28;9.32;;;7.80;;
51985;SDS011;38002;53.296;6.600;2023-03-01T14:21:46;10.13;;;7.05;;
51985;SDS011;38002;53.296;6.600;2023-03-01T14:26:47;11.65;;;7.43;;
51985;SDS011;38002;53.296;6.600;2023-03-01T14:36:49;7.73;;;6.50;;
51985;SDS011;38002;53.296;6.600;2023-03-01T14:41:50;10.20;;;8.27;;
51985;SDS011;38002;53.296;6.600;2023-03-01T14:46:52;13.75;;;8.35;;
51985;SDS011;38002;53.296;6.600;2023-03-01T14:56:59;10.55;;;7.00;;
51985;SDS011;38002;53.296;6.600;2023-03-01T15:07:01;11.57;;;8.27;;
51985;SDS011;38002;53.296;6.600;2023-03-01T15:17:31;10.25;;;7.20;;
51985;SDS011;38002;53.296;6.600;2023-03-01T15:22:34;11.50;;;8.07;;
51985;SDS011;38002;53.296;6.600;2023-03-01T15:27:35;8.68;;;7.45;;
51985;SDS011;38002;53.296;6.600;2023-03-01T15:32:36;11.75;;;9.63;;
51985;SDS011;38002;53.296;6.600;2023-03-01T15:37:46;13.30;;;8.60;;
51985;SDS011;38002;53.296;6.600;2023-03-01T15:42:48;15.55;;;10.45;;
51985;SDS011;38002;53.296;6.600;2023-03-01T15:47:50;17.83;;;9.63;;
51985;SDS011;38002;53.296;6.600;2023-03-01T15:52:53;12.45;;;9.25;;
51985;SDS011;38002;53.296;6.600;2023-03-01T15:57:58;19.50;;;10.10;;
51985;SDS011;38002;53.296;6.600;2023-03-01T16:03:10;12.85;;;8.98;;
51985;SDS011;38002;53.296;6.600;2023-03-01T16:08:11;16.35;;;10.52;;
51985;SDS011;38002;53.296;6.600;2023-03-01T16:13:12;12.35;;;8.15;;
51985;SDS011;38002;53.296;6.600;2023-03-01T16:18:13;14.02;;;9.43;;
51985;SDS011;38002;53.296;6.600;2023-03-01T16:23:14;9.27;;;6.97;;
51985;SDS011;38002;53.296;6.600;2023-03-01T16:28:15;12.27;;;7.00;;
51985;SDS011;38002;53.296;6.600;2023-03-01T16:33:15;11.57;;;7.93;;
51985;SDS011;38002;53.296;6.600;2023-03-01T16:38:16;10.95;;;8.10;;
51985;SDS011;38002;53.296;6.600;2023-03-01T16:43:16;14.52;;;8.13;;
51985;SDS011;38002;53.296;6.600;2023-03-01T16:48:16;13.30;;;8.57;;
51985;SDS011;38002;53.296;6.600;2023-03-01T16:53:17;12.23;;;8.52;;
51985;SDS011;38002;53.296;6.600;2023-03-01T16:58:18;14.00;;;9.07;;
51985;SDS011;38002;53.296;6.600;2023-03-01T17:03:19;14.18;;;9.95;;
51985;SDS011;38002;53.296;6.600;2023-03-01T17:13:20;13.85;;;9.02;;
51985;SDS011;38002;53.296;6.600;2023-03-01T17:18:23;13.45;;;7.95;;
51985;SDS011;38002;53.296;6.600;2023-03-01T17:23:24;9.32;;;7.53;;
51985;SDS011;38002;53.296;6.600;2023-03-01T17:28:25;10.57;;;8.25;;
51985;SDS011;38002;53.296;6.600;2023-03-01T17:33:28;11.93;;;7.80;;
51985;SDS011;38002;53.296;6.600;2023-03-01T17:38:30;10.20;;;7.68;;
51985;SDS011;38002;53.296;6.600;2023-03-01T17:43:30;8.38;;;6.50;;
51985;SDS011;38002;53.296;6.600;2023-03-01T17:48:33;13.75;;;7.90;;
51985;SDS011;38002;53.296;6.600;2023-03-01T17:53:34;8.68;;;7.82;;
51985;SDS011;38002;53.296;6.600;2023-03-01T17:58:35;10.63;;;8.37;;
51985;SDS011;38002;53.296;6.600;2023-03-01T18:03:37;14.02;;;7.65;;
51985;SDS011;38002;53.296;6.600;2023-03-01T18:08:38;10.63;;;8.18;;
51985;SDS011;38002;53.296;6.600;2023-03-01T18:13:38;9.80;;;8.07;;
51985;SDS011;38002;53.296;6.600;2023-03-01T18:18:40;12.83;;;8.17;;
51985;SDS011;38002;53.296;6.600;2023-03-01T18:23:41;11.97;;;8.37;;
51985;SDS011;38002;53.296;6.600;2023-03-01T18:28:41;11.60;;;8.43;;
51985;SDS011;38002;53.296;6.600;2023-03-01T18:33:46;12.45;;;8.23;;
51985;SDS011;38002;53.296;6.600;2023-03-01T18:38:48;11.43;;;7.53;;
51985;SDS011;38002;53.296;6.600;2023-03-01T18:43:48;9.20;;;7.60;;
51985;SDS011;38002;53.296;6.600;2023-03-01T18:48:50;8.40;;;6.70;;
51985;SDS011;38002;53.296;6.600;2023-03-01T18:58:52;8.57;;;7.00;;
51985;SDS011;38002;53.296;6.600;2023-03-01T19:03:53;8.38;;;6.85;;
51985;SDS011;38002;53.296;6.600;2023-03-01T19:08:55;9.40;;;7.15;;
51985;SDS011;38002;53.296;6.600;2023-03-01T19:13:57;10.00;;;8.33;;
51985;SDS011;38002;53.296;6.600;2023-03-01T19:18:59;10.82;;;7.78;;
51985;SDS011;38002;53.296;6.600;2023-03-01T19:24:01;8.80;;;7.78;;
51985;SDS011;38002;53.296;6.600;2023-03-01T19:29:02;11.02;;;7.95;;
51985;SDS011;38002;53.296;6.600;2023-03-01T19:34:02;12.10;;;7.32;;
51985;SDS011;38002;53.296;6.600;2023-03-01T19:39:04;9.38;;;7.03;;
51985;SDS011;38002;53.296;6.600;2023-03-01T19:49:07;13.07;;;7.75;;
51985;SDS011;38002;53.296;6.600;2023-03-01T19:54:08;12.38;;;9.05;;
51985;SDS011;38002;53.296;6.600;2023-03-01T19:59:10;13.85;;;8.13;;
51985;SDS011;38002;53.296;6.600;2023-03-01T20:04:11;14.77;;;9.80;;
51985;SDS011;38002;53.296;6.600;2023-03-01T20:09:12;15.32;;;10.50;;
51985;SDS011;38002;53.296;6.600;2023-03-01T20:14:13;16.17;;;9.67;;
51985;SDS011;38002;53.296;6.600;2023-03-01T20:19:13;15.57;;;10.25;;
51985;SDS011;38002;53.296;6.600;2023-03-01T20:24:14;14.50;;;10.68;;
51985;SDS011;38002;53.296;6.600;2023-03-01T20:29:14;15.13;;;10.32;;
51985;SDS011;38002;53.296;6.600;2023-03-01T20:34:15;14.57;;;9.65;;
51985;SDS011;38002;53.296;6.600;2023-03-01T20:39:15;12.80;;;9.43;;
51985;SDS011;38002;53.296;6.600;2023-03-01T20:44:16;15.85;;;10.20;;
51985;SDS011;38002;53.296;6.600;2023-03-01T20:49:16;14.70;;;9.48;;
51985;SDS011;38002;53.296;6.600;2023-03-01T20:54:17;12.95;;;9.93;;
51985;SDS011;38002;53.296;6.600;2023-03-01T20:59:17;14.93;;;9.10;;
51985;SDS011;38002;53.296;6.600;2023-03-01T21:04:18;13.85;;;8.85;;
51985;SDS011;38002;53.296;6.600;2023-03-01T21:09:19;13.27;;;9.15;;
51985;SDS011;38002;53.296;6.600;2023-03-01T21:14:19;13.63;;;8.43;;
51985;SDS011;38002;53.296;6.600;2023-03-01T21:19:20;10.27;;;7.97;;
51985;SDS011;38002;53.296;6.600;2023-03-01T21:24:21;12.23;;;8.40;;
51985;SDS011;38002;53.296;6.600;2023-03-01T21:29:21;12.30;;;8.65;;
51985;SDS011;38002;53.296;6.600;2023-03-01T21:34:22;12.98;;;9.13;;
51985;SDS011;38002;53.296;6.600;2023-03-01T21:39:22;11.85;;;9.43;;
51985;SDS011;38002;53.296;6.600;2023-03-01T21:44:28;16.30;;;8.50;;
51985;SDS011;38002;53.296;6.600;2023-03-01T21:49:30;15.73;;;9.13;;
51985;SDS011;38002;53.296;6.600;2023-03-01T21:54:30;13.75;;;9.25;;
51985;SDS011;38002;53.296;6.600;2023-03-01T21:59:31;12.55;;;8.60;;
51985;SDS011;38002;53.296;6.600;2023-03-01T22:04:31;12.10;;;8.75;;
51985;SDS011;38002;53.296;6.600;2023-03-01T22:09:32;12.25;;;8.13;;
51985;SDS011;38002;53.296;6.600;2023-03-01T22:14:35;14.90;;;9.02;;
51985;SDS011;38002;53.296;6.600;2023-03-01T22:19:35;12.48;;;8.93;;
51985;SDS011;38002;53.296;6.600;2023-03-01T22:24:36;11.63;;;8.15;;
51985;SDS011;38002;53.296;6.600;2023-03-01T22:29:36;16.63;;;9.00;;
51985;SDS011;38002;53.296;6.600;2023-03-01T22:34:37;16.48;;;10.05;;
51985;SDS011;38002;53.296;6.600;2023-03-01T22:39:37;10.55;;;7.63;;
51985;SDS011;38002;53.296;6.600;2023-03-01T22:44:37;10.70;;;6.93;;
51985;SDS011;38002;53.296;6.600;2023-03-01T22:49:38;10.93;;;8.50;;
51985;SDS011;38002;53.296;6.600;2023-03-01T22:54:38;13.13;;;7.97;;
51985;SDS011;38002;53.296;6.600;2023-03-01T22:59:39;11.38;;;8.35;;
51985;SDS011;38002;53.296;6.600;2023-03-01T23:04:40;13.38;;;8.30;;
51985;SDS011;38002;53.296;6.600;2023-03-01T23:09:42;13.63;;;7.47;;
51985;SDS011;38002;53.296;6.600;2023-03-01T23:14:43;8.82;;;6.35;;
51985;SDS011;38002;53.296;6.600;2023-03-01T23:19:43;8.93;;;6.57;;
51985;SDS011;38002;53.296;6.600;2023-03-01T23:24:44;6.68;;;5.20;;
51985;SDS011;38002;53.296;6.600;2023-03-01T23:29:44;6.22;;;5.43;;
51985;SDS011;38002;53.296;6.600;2023-03-01T23:34:45;5.75;;;4.85;;
51985;SDS011;38002;53.296;6.600;2023-03-01T23:39:45;7.07;;;5.00;;
51985;SDS011;38002;53.296;6.600;2023-03-01T23:44:46;6.03;;;5.30;;
51985;SDS011;38002;53.296;6.600;2023-03-01T23:49:48;6.45;;;4.25;;
51985;SDS011;38002;53.296;6.600;2023-03-01T23:54:49;4.63;;;4.15;;
51985;SDS011;38002;53.296;6.600;2023-03-01T23:59:50;8.48;;;5.50;;
